^^
Datos históricos de la estación: Murcia-Puente Tocinos
Diario Informe para Septiembre 14, 2019 Unidades:  Ambas    Ingés   Métrico
Diario Semanal Mensual Anual
  Máxima: Mínima: Promedio:
Temperatura: 67.5 °F /  19.7 °C 52.3 °F /  11.3 °C 59.9 °F /  15.5 °C
Punto de rocio: 47.1 °F /  8.4 °C 42.6 °F /  5.9 °C 45 °F /  7.2 °C
Humedad: 72.6% 47% 58%
Velocidad viento: 10.2mph /  16.4km/h - 5.9mph /  9.5km/h
Racha viento: 19mph /  30.6km/h - -
Viento- - SO
Presión: 30 in /  1017.0 hPa 30 in /  1014.4 hPa -
Precipitación: 0 in /  0.0 mm    
 
 
Tabla de datos para Septiembre 14, 2019
Hora Temperatura Punto de rocio Presión Viento Velocidad viento Racha viento Humedad Intensidad lluvia(por hora) Nubes
00:04 62.8 °F /  17.1 °C 45.9 °F /  7.7 °C 30in /  1014.4hPa SO 6.9mph /  11.1km/h 12mph /  19.3km/h 54% 0in /  0.0mm
00:09 62.8 °F /  17.1 °C 45.9 °F /  7.7 °C 30in /  1014.7hPa SO 6.9mph /  11.1km/h 8mph /  12.9km/h 53.8% 0in /  0.0mm
00:14 63 °F /  17.2 °C 45.7 °F /  7.6 °C 30in /  1014.7hPa SO 5.3mph /  8.6km/h 8.1mph /  13km/h 53% 0in /  0.0mm
00:19 63 °F /  17.2 °C 45.7 °F /  7.6 °C 30in /  1014.7hPa SO 4.3mph /  6.9km/h 5mph /  8km/h 53% 0in /  0.0mm
00:24 63 °F /  17.2 °C 45.7 °F /  7.6 °C 30in /  1014.8hPa SO 3.5mph /  5.6km/h 4mph /  6.4km/h 53% 0in /  0.0mm
00:29 63 °F /  17.2 °C 45.5 °F /  7.5 °C 30in /  1014.8hPa SO 2.9mph /  4.7km/h 3.6mph /  5.8km/h 53% 0in /  0.0mm
00:34 62.8 °F /  17.1 °C 45.3 °F /  7.4 °C 30in /  1014.8hPa SO 1.2mph /  2km/h 4.6mph /  7.4km/h 53% 0in /  0.0mm
00:39 62.8 °F /  17.1 °C 45.7 °F /  7.6 °C 30in /  1014.9hPa Calm   10.7mph /  17.2km/h 53.4% 0in /  0.0mm
00:44 63.1 °F /  17.3 °C 45.7 °F /  7.6 °C 30in /  1014.9hPa OSO 2.3mph /  3.7km/h 11mph /  17.7km/h 53% 0in /  0.0mm
00:49 63.1 °F /  17.3 °C 45.5 °F /  7.5 °C 30in /  1014.9hPa OSO 4mph /  6.5km/h 8.1mph /  13km/h 52.6% 0in /  0.0mm
00:54 63 °F /  17.2 °C 45.7 °F /  7.6 °C 30in /  1015.1hPa SSO 4mph /  6.5km/h 8mph /  12.9km/h 53% 0in /  0.0mm
00:59 62.8 °F /  17.1 °C 45.5 °F /  7.5 °C 30in /  1015.1hPa Sur 4mph /  6.5km/h 7mph /  11.3km/h 53.3% 0in /  0.0mm
01:04 62.4 °F /  16.9 °C 45.5 °F /  7.5 °C 30in /  1015.1hPa SSE 3.4mph /  5.4km/h 5mph /  8km/h 54% 0in /  0.0mm
01:09 62.1 °F /  16.7 °C 45.5 °F /  7.5 °C 30in /  1015.1hPa SE 2.9mph /  4.7km/h 5mph /  8km/h 54.6% 0in /  0.0mm
01:14 61.7 °F /  16.5 °C 45.3 °F /  7.4 °C 30in /  1015.1hPa SE 2.4mph /  3.8km/h 5mph /  8km/h 55% 0in /  0.0mm
01:19 61.3 °F /  16.3 °C 45.3 °F /  7.4 °C 30in /  1015.1hPa SE 2mph /  3.2km/h 3mph /  4.8km/h 55.6% 0in /  0.0mm
01:24 61.3 °F /  16.3 °C 45.5 °F /  7.5 °C 30in /  1015.2hPa SO 0.8mph /  1.3km/h 4.6mph /  7.4km/h 55.7% 0in /  0.0mm
01:29 61.9 °F /  16.6 °C 45.5 °F /  7.5 °C 30in /  1015.2hPa Calm   5mph /  8km/h 55% 0in /  0.0mm
01:34 61.9 °F /  16.6 °C 45.5 °F /  7.5 °C 30in /  1015.2hPa ONO 1.4mph /  2.3km/h 6.9mph /  11.1km/h 55% 0in /  0.0mm
01:39 61.9 °F /  16.6 °C 45.5 °F /  7.5 °C 30in /  1015.2hPa ONO 2.4mph /  3.9km/h 7mph /  11.3km/h 55% 0in /  0.0mm
01:44 61.5 °F /  16.4 °C 45.5 °F /  7.5 °C 30in /  1015.1hPa NO 2.4mph /  3.9km/h 7mph /  11.3km/h 55.7% 0in /  0.0mm
01:49 60.6 °F /  15.9 °C 45.5 °F /  7.5 °C 30in /  1015.1hPa ESE 2.4mph /  3.9km/h 6mph /  9.7km/h 57.4% 0in /  0.0mm
01:54 59.7 °F /  15.4 °C 45.3 °F /  7.4 °C 30in /  1015.3hPa ESE 2.8mph /  4.5km/h 6mph /  9.7km/h 58.9% 0in /  0.0mm
01:59 59.4 °F /  15.2 °C 45.5 °F /  7.5 °C 30in /  1015.3hPa ENE 3.1mph /  5km/h 5mph /  8km/h 60% 0in /  0.0mm
02:04 59.4 °F /  15.2 °C 45.5 °F /  7.5 °C 30in /  1015.3hPa NO 2.4mph /  3.9km/h 5mph /  8km/h 60% 0in /  0.0mm
02:09 59.4 °F /  15.2 °C 45.5 °F /  7.5 °C 30in /  1015.3hPa NO 2mph /  3.2km/h 5mph /  8km/h 60% 0in /  0.0mm
02:14 59.4 °F /  15.2 °C 45.5 °F /  7.5 °C 30in /  1015.2hPa SSE 2.5mph /  4km/h 5.8mph /  9.3km/h 60% 0in /  0.0mm
02:19 58.6 °F /  14.8 °C 45.5 °F /  7.5 °C 30in /  1015.2hPa SSE 2.9mph /  4.7km/h 6mph /  9.7km/h 61.3% 0in /  0.0mm
02:24 57.9 °F /  14.4 °C 45.3 °F /  7.4 °C 30in /  1015.4hPa SE 3mph /  4.8km/h 5mph /  8km/h 62.9% 0in /  0.0mm
02:29 58.1 °F /  14.5 °C 45.5 °F /  7.5 °C 30in /  1015.4hPa Sur 3.1mph /  5km/h 5mph /  8km/h 62.7% 0in /  0.0mm
02:34 58.6 °F /  14.8 °C 45.5 °F /  7.5 °C 30in /  1015.4hPa SE 3mph /  4.8km/h 5mph /  8km/h 61.9% 0in /  0.0mm
02:39 58.8 °F /  14.9 °C 45.3 °F /  7.4 °C 30in /  1015.5hPa ESE 2.9mph /  4.7km/h 4.6mph /  7.4km/h 61% 0in /  0.0mm
02:44 58.3 °F /  14.6 °C 45.3 °F /  7.4 °C 30in /  1015.5hPa ESE 2.6mph /  4.2km/h 9.7mph /  15.6km/h 62.2% 0in /  0.0mm
02:49 57 °F /  13.9 °C 45.1 °F /  7.3 °C 30in /  1015.5hPa SE 2.4mph /  3.9km/h 10mph /  16.1km/h 64.6% 0in /  0.0mm
02:54 56.5 °F /  13.6 °C 45.3 °F /  7.4 °C 30in /  1015.5hPa SSO 3.1mph /  5km/h 6mph /  9.7km/h 66% 0in /  0.0mm
02:59 56.7 °F /  13.7 °C 45.3 °F /  7.4 °C 30in /  1015.5hPa SO 3.6mph /  5.8km/h 5mph /  8km/h 66% 0in /  0.0mm
03:04 56.7 °F /  13.7 °C 45.3 °F /  7.4 °C 30in /  1015.5hPa SSE 2.9mph /  4.6km/h 5mph /  8km/h 66% 0in /  0.0mm
03:09 56.7 °F /  13.7 °C 45.3 °F /  7.4 °C 30in /  1015.6hPa SO 2.4mph /  3.9km/h 5mph /  8km/h 66% 0in /  0.0mm
03:14 56.7 °F /  13.7 °C 45.5 °F /  7.5 °C 30in /  1015.6hPa SO 2.7mph /  4.3km/h 5.2mph /  8.4km/h 66% 0in /  0.0mm
03:19 57 °F /  13.9 °C 45.5 °F /  7.5 °C 30in /  1015.6hPa OSO 2.9mph /  4.7km/h 8.1mph /  13km/h 65.6% 0in /  0.0mm
03:24 57.4 °F /  14.1 °C 45.7 °F /  7.6 °C 30in /  1015.6hPa Oeste 3.3mph /  5.3km/h 8mph /  12.9km/h 64.8% 0in /  0.0mm
03:29 57.4 °F /  14.1 °C 45.3 °F /  7.4 °C 30in /  1015.5hPa SSE 3.6mph /  5.8km/h 5.9mph /  9.5km/h 64.3% 0in /  0.0mm
03:34 56.8 °F /  13.8 °C 45.3 °F /  7.4 °C 30in /  1015.5hPa SSE 3.3mph /  5.3km/h 6mph /  9.7km/h 65.5% 0in /  0.0mm
03:39 56.5 °F /  13.6 °C 45.5 °F /  7.5 °C 30in /  1015.6hPa Sur 3.1mph /  5km/h 6mph /  9.7km/h 66.3% 0in /  0.0mm
03:44 56.5 °F /  13.6 °C 45.5 °F /  7.5 °C 30in /  1015.6hPa SSE 3.1mph /  5km/h 6mph /  9.7km/h 66.4% 0in /  0.0mm
03:49 56.1 °F /  13.4 °C 45.3 °F /  7.4 °C 30in /  1015.6hPa SE 3.1mph /  5km/h 7.4mph /  11.9km/h 67% 0in /  0.0mm
03:54 55.4 °F /  13 °C 45 °F /  7.2 °C 30in /  1015.7hPa SSE 4mph /  6.5km/h 8.5mph /  13.7km/h 67.7% 0in /  0.0mm
03:59 54.9 °F /  12.7 °C 44.8 °F /  7.1 °C 30in /  1015.7hPa SSO 4.7mph /  7.6km/h 9mph /  14.5km/h 69.1% 0in /  0.0mm
04:04 54.3 °F /  12.4 °C 44.8 °F /  7.1 °C 30in /  1015.7hPa SSO 4mph /  6.5km/h 5.2mph /  8.4km/h 70% 0in /  0.0mm
04:09 54.1 °F /  12.3 °C 44.8 °F /  7.1 °C 30in /  1015.7hPa SSE 3.6mph /  5.8km/h 6.9mph /  11.1km/h 70.5% 0in /  0.0mm
04:14 54 °F /  12.2 °C 44.8 °F /  7.1 °C 30in /  1015.6hPa SSO 3.9mph /  6.2km/h 7mph /  11.3km/h 71.1% 0in /  0.0mm
04:19 54 °F /  12.2 °C 45.1 °F /  7.3 °C 30in /  1015.6hPa SO 4mph /  6.5km/h 5mph /  8km/h 72% 0in /  0.0mm
04:24 54 °F /  12.2 °C 45 °F /  7.2 °C 30in /  1015.6hPa SSE 3.1mph /  5km/h 5mph /  8km/h 71.7% 0in /  0.0mm
04:29 54 °F /  12.2 °C 44.8 °F /  7.1 °C 30in /  1015.6hPa Sur 2.4mph /  3.9km/h 5mph /  8km/h 71% 0in /  0.0mm
04:34 54 °F /  12.2 °C 44.8 °F /  7.1 °C 30in /  1015.6hPa Sur 2.8mph /  4.5km/h 7.4mph /  11.9km/h 71% 0in /  0.0mm
04:39 54.1 °F /  12.3 °C 44.8 °F /  7.1 °C 30in /  1015.6hPa SSE 3.1mph /  5km/h 8.1mph /  13km/h 70.4% 0in /  0.0mm
04:44 54 °F /  12.2 °C 44.8 °F /  7.1 °C 30in /  1015.5hPa SSO 4.3mph /  6.9km/h 8mph /  12.9km/h 71% 0in /  0.0mm
04:49 54 °F /  12.2 °C 44.8 °F /  7.1 °C 30in /  1015.5hPa SO 5.2mph /  8.4km/h 7.4mph /  11.9km/h 71% 0in /  0.0mm
04:54 54 °F /  12.2 °C 44.8 °F /  7.1 °C 30in /  1015.5hPa SO 4.9mph /  7.9km/h 7mph /  11.3km/h 71% 0in /  0.0mm
04:59 54 °F /  12.2 °C 44.8 °F /  7.1 °C 30in /  1015.3hPa SO 4.7mph /  7.6km/h 6mph /  9.7km/h 71% 0in /  0.0mm
05:04 54 °F /  12.2 °C 44.6 °F /  7 °C 30in /  1015.3hPa Sur 4.3mph /  6.9km/h 6mph /  9.7km/h 70.7% 0in /  0.0mm
05:09 54 °F /  12.2 °C 44.6 °F /  7 °C 30in /  1015.3hPa Sur 4mph /  6.5km/h 8.1mph /  13km/h 70.7% 0in /  0.0mm
05:14 53.8 °F /  12.1 °C 44.6 °F /  7 °C 30in /  1015.2hPa Sur 4.4mph /  7.1km/h 8.1mph /  13km/h 71% 0in /  0.0mm
05:19 53.4 °F /  11.9 °C 44.2 °F /  6.8 °C 30in /  1015.2hPa SSO 4.7mph /  7.6km/h 8mph /  12.9km/h 71% 0in /  0.0mm
05:24 54 °F /  12.2 °C 44.6 °F /  7 °C 30in /  1015.2hPa OSO 4.7mph /  7.6km/h 7mph /  11.3km/h 70.8% 0in /  0.0mm
05:29 54.1 °F /  12.3 °C 44.6 °F /  7 °C 30in /  1015.2hPa SSO 4.7mph /  7.6km/h 7mph /  11.3km/h 69.9% 0in /  0.0mm
05:34 54.1 °F /  12.3 °C 44.2 °F /  6.8 °C 30in /  1015.2hPa SSE 4.5mph /  7.2km/h 7mph /  11.3km/h 69.4% 0in /  0.0mm
05:39 53.6 °F /  12 °C 44.2 °F /  6.8 °C 30in /  1015.4hPa Sur 4.3mph /  6.9km/h 8.5mph /  13.7km/h 70.6% 0in /  0.0mm
05:44 53.2 °F /  11.8 °C 44.2 °F /  6.8 °C 30in /  1015.4hPa SSO 5mph /  8km/h 9mph /  14.5km/h 71.7% 0in /  0.0mm
05:49 53.2 °F /  11.8 °C 44.4 °F /  6.9 °C 30in /  1015.4hPa SSO 5.4mph /  8.7km/h 8mph /  12.9km/h 72% 0in /  0.0mm
05:54 53.4 °F /  11.9 °C 44.2 °F /  6.8 °C 30in /  1015.4hPa SO 5mph /  8.1km/h 6.9mph /  11.1km/h 71.3% 0in /  0.0mm
05:59 54 °F /  12.2 °C 44.6 °F /  7 °C 30in /  1015.3hPa SO 4.7mph /  7.6km/h 7mph /  11.3km/h 70.4% 0in /  0.0mm
06:04 54.3 °F /  12.4 °C 44.4 °F /  6.9 °C 30in /  1015.3hPa SO 4.5mph /  7.2km/h 7.6mph /  12.2km/h 69% 0in /  0.0mm
06:09 54.7 °F /  12.6 °C 44.4 °F /  6.9 °C 30in /  1015.5hPa SO 4.3mph /  6.9km/h 8.1mph /  13km/h 68.2% 0in /  0.0mm
06:14 55 °F /  12.8 °C 44.2 °F /  6.8 °C 30in /  1015.5hPa SO 4.5mph /  7.3km/h 8.1mph /  13km/h 67.3% 0in /  0.0mm
06:19 54.9 °F /  12.7 °C 44.1 °F /  6.7 °C 30in /  1015.5hPa Sur 4.7mph /  7.6km/h 8mph /  12.9km/h 67% 0in /  0.0mm
06:24 54 °F /  12.2 °C 43.9 °F /  6.6 °C 30in /  1015.6hPa SSE 4mph /  6.5km/h 5.9mph /  9.5km/h 68.5% 0in /  0.0mm
06:29 52.9 °F /  11.6 °C 43.7 °F /  6.5 °C 30in /  1015.6hPa Sur 3.6mph /  5.8km/h 6.9mph /  11.1km/h 70.8% 0in /  0.0mm
06:34 52.3 °F /  11.3 °C 43.7 °F /  6.5 °C 30in /  1015.6hPa SSO 4mph /  6.5km/h 7.4mph /  11.9km/h 72.4% 0in /  0.0mm
06:39 52.3 °F /  11.3 °C 43.7 °F /  6.5 °C 30in /  1015.6hPa SSO 4.3mph /  6.9km/h 8.5mph /  13.7km/h 72.6% 0in /  0.0mm
06:44 52.5 °F /  11.4 °C 43.7 °F /  6.5 °C 30in /  1015.6hPa SSO 5mph /  8km/h 9.2mph /  14.8km/h 71.7% 0in /  0.0mm
06:49 53.1 °F /  11.7 °C 43.7 °F /  6.5 °C 30in /  1015.6hPa SSO 5.4mph /  8.7km/h 10.4mph /  16.7km/h 70.5% 0in /  0.0mm
06:54 53.4 °F /  11.9 °C 43.5 °F /  6.4 °C 30in /  1015.6hPa SSO 5.9mph /  9.5km/h 10mph /  16.1km/h 69.2% 0in /  0.0mm
06:59 53.8 °F /  12.1 °C 43.7 °F /  6.5 °C 30in /  1015.6hPa SSO 6.2mph /  10km/h 10.7mph /  17.2km/h 68.4% 0in /  0.0mm
07:04 54.1 °F /  12.3 °C 43.7 °F /  6.5 °C 30in /  1015.6hPa SSO 6.2mph /  10km/h 11mph /  17.7km/h 67.5% 0in /  0.0mm
07:09 54.3 °F /  12.4 °C 43.7 °F /  6.5 °C 30in /  1015.9hPa SO 6.2mph /  10km/h 9mph /  14.5km/h 67% 0in /  0.0mm
07:14 54.5 °F /  12.5 °C 43.9 °F /  6.6 °C 30in /  1015.9hPa SO 4.7mph /  7.5km/h 6.9mph /  11.1km/h 67% 0in /  0.0mm
07:19 54.3 °F /  12.4 °C 43.7 °F /  6.5 °C 30in /  1015.9hPa SO 3.6mph /  5.8km/h 7mph /  11.3km/h 67% 0in /  0.0mm
07:24 54.3 °F /  12.4 °C 43.5 °F /  6.4 °C 30in /  1015.9hPa Sur 3.2mph /  5.1km/h 5.8mph /  9.3km/h 67% 0in /  0.0mm
07:29 54.3 °F /  12.4 °C 43.5 °F /  6.4 °C 30in /  1015.9hPa SO 2.9mph /  4.7km/h 7.4mph /  11.9km/h 66.7% 0in /  0.0mm
07:34 54.3 °F /  12.4 °C 43.2 °F /  6.2 °C 30in /  1015.9hPa SO 3.7mph /  6km/h 9.2mph /  14.8km/h 66% 0in /  0.0mm
07:39 54.1 °F /  12.3 °C 43 °F /  6.1 °C 30in /  1015.9hPa SO 4.3mph /  6.9km/h 9.7mph /  15.6km/h 66% 0in /  0.0mm
07:44 54.1 °F /  12.3 °C 43 °F /  6.1 °C 30in /  1015.8hPa SSO 5mph /  8km/h 10mph /  16.1km/h 66% 0in /  0.0mm
07:49 54.1 °F /  12.3 °C 43 °F /  6.1 °C 30in /  1015.8hPa Sur 5.4mph /  8.7km/h 8.1mph /  13km/h 66% 0in /  0.0mm
07:54 54 °F /  12.2 °C 43 °F /  6.1 °C 30in /  1016.0hPa Sur 5.4mph /  8.7km/h 10.7mph /  17.2km/h 66.4% 0in /  0.0mm
07:59 53.8 °F /  12.1 °C 43.2 °F /  6.2 °C 30in /  1016.0hPa Sur 5.4mph /  8.7km/h 11.8mph /  19km/h 67% 0in /  0.0mm
08:04 53.6 °F /  12 °C 43 °F /  6.1 °C 30in /  1016.0hPa SSE 6.6mph /  10.7km/h 12mph /  19.3km/h 67% 0in /  0.0mm
08:09 53.6 °F /  12 °C 43 °F /  6.1 °C 30in /  1016.0hPa Sur 7.4mph /  11.9km/h 12mph /  19.3km/h 67% 0in /  0.0mm
08:14 53.8 °F /  12.1 °C 42.6 °F /  5.9 °C 30in /  1016.0hPa Sur 6.8mph /  10.9km/h 11.5mph /  18.5km/h 66.1% 0in /  0.0mm
08:19 53.8 °F /  12.1 °C 42.6 °F /  5.9 °C 30in /  1016.0hPa Sur 6.4mph /  10.3km/h 12mph /  19.3km/h 66% 0in /  0.0mm
08:24 53.8 °F /  12.1 °C 42.6 °F /  5.9 °C 30in /  1016.1hPa Sur 6.3mph /  10.1km/h 11mph /  17.7km/h 66% 0in /  0.0mm
08:29 54 °F /  12.2 °C 42.8 °F /  6 °C 30in /  1016.1hPa Sur 6.2mph /  10km/h 8.1mph /  13km/h 66% 0in /  0.0mm
08:34 54 °F /  12.2 °C 43 °F /  6.1 °C 30in /  1016.1hPa SSO 5.7mph /  9.1km/h 8.1mph /  13km/h 66% 0in /  0.0mm
08:39 54.1 °F /  12.3 °C 42.8 °F /  6 °C 30in /  1016.1hPa Sur 5.2mph /  8.4km/h 9.2mph /  14.8km/h 65.5% 0in /  0.0mm
08:44 54.3 °F /  12.4 °C 42.8 °F /  6 °C 30in /  1016.1hPa SSE 5.3mph /  8.6km/h 9mph /  14.5km/h 65% 0in /  0.0mm
08:49 54.3 °F /  12.4 °C 42.8 °F /  6 °C 30in /  1016.1hPa Sur 5.4mph /  8.7km/h 7mph /  11.3km/h 65% 0in /  0.0mm
08:54 54.3 °F /  12.4 °C 42.8 °F /  6 °C 30in /  1016.3hPa Sur 5mph /  8km/h 7mph /  11.3km/h 65% 0in /  0.0mm
08:59 54.7 °F /  12.6 °C 43 °F /  6.1 °C 30in /  1016.3hPa Sur 4.7mph /  7.6km/h 7.4mph /  11.9km/h 65% 0in /  0.0mm
09:04 54.9 °F /  12.7 °C 43.2 °F /  6.2 °C 30in /  1016.3hPa SSO 4.5mph /  7.2km/h 8.5mph /  13.7km/h 65% 0in /  0.0mm
09:09 55.2 °F /  12.9 °C 43.2 °F /  6.2 °C 30in /  1016.4hPa SSO 4.3mph /  6.9km/h 9.2mph /  14.8km/h 64% 0in /  0.0mm
09:14 55.6 °F /  13.1 °C 43.5 °F /  6.4 °C 30in /  1016.4hPa SSO 5mph /  8km/h 9mph /  14.5km/h 64% 0in /  0.0mm
09:19 55.8 °F /  13.2 °C 43.3 °F /  6.3 °C 30in /  1016.4hPa SSO 5.4mph /  8.7km/h 9mph /  14.5km/h 63.1% 0in /  0.0mm
09:24 55.9 °F /  13.3 °C 43.5 °F /  6.4 °C 30in /  1016.4hPa SSO 5.9mph /  9.5km/h 10.7mph /  17.2km/h 63% 0in /  0.0mm
09:29 56.1 °F /  13.4 °C 43.7 °F /  6.5 °C 30in /  1016.4hPa SSO 6.2mph /  10km/h 11mph /  17.7km/h 63% 0in /  0.0mm
09:34 56.1 °F /  13.4 °C 43.7 °F /  6.5 °C 30in /  1016.4hPa SSO 6.3mph /  10.2km/h 10.7mph /  17.2km/h 63% 0in /  0.0mm
09:39 56.1 °F /  13.4 °C 43.7 °F /  6.5 °C 30in /  1016.7hPa SSO 6.4mph /  10.3km/h 11mph /  17.7km/h 63% 0in /  0.0mm
09:44 56.1 °F /  13.4 °C 43.7 °F /  6.5 °C 30in /  1016.7hPa SSO 6.7mph /  10.8km/h 10.4mph /  16.7km/h 63% 0in /  0.0mm
09:49 56.3 °F /  13.5 °C 43.9 °F /  6.6 °C 30in /  1016.7hPa SSO 6.9mph /  11.1km/h 10mph /  16.1km/h 63% 0in /  0.0mm
09:54 56.7 °F /  13.7 °C 44.1 °F /  6.7 °C 30in /  1016.8hPa SSO 6.5mph /  10.4km/h 11.5mph /  18.5km/h 63% 0in /  0.0mm
09:59 56.7 °F /  13.7 °C 44.2 °F /  6.8 °C 30in /  1016.8hPa Sur 6.2mph /  10km/h 12.7mph /  20.4km/h 63% 0in /  0.0mm
10:04 56.8 °F /  13.8 °C 44.4 °F /  6.9 °C 30in /  1016.8hPa SSO 7.1mph /  11.4km/h 13mph /  20.9km/h 63% 0in /  0.0mm
10:09 57.2 °F /  14 °C 44.6 °F /  7 °C 30in /  1016.9hPa SSO 7.6mph /  12.2km/h 13mph /  20.9km/h 62.8% 0in /  0.0mm
10:14 57.6 °F /  14.2 °C 44.6 °F /  7 °C 30in /  1016.9hPa SSO 7.9mph /  12.7km/h 13mph /  20.9km/h 62% 0in /  0.0mm
10:19 57.9 °F /  14.4 °C 44.8 °F /  7.1 °C 30in /  1016.9hPa SSO 8.1mph /  13km/h 13.8mph /  22.2km/h 61.4% 0in /  0.0mm
10:24 58.3 °F /  14.6 °C 45 °F /  7.2 °C 30in /  1017.0hPa SSO 8.1mph /  13km/h 14mph /  22.5km/h 61% 0in /  0.0mm
10:29 58.6 °F /  14.8 °C 45.1 °F /  7.3 °C 30in /  1017.0hPa SSO 8.1mph /  13km/h 12mph /  19.3km/h 60.9% 0in /  0.0mm
10:34 58.8 °F /  14.9 °C 45 °F /  7.2 °C 30in /  1017.0hPa SSO 7.4mph /  11.9km/h 13.8mph /  22.2km/h 60% 0in /  0.0mm
10:39 59 °F /  15 °C 45.1 °F /  7.3 °C 30in /  1017.0hPa SSO 6.9mph /  11.1km/h 14mph /  22.5km/h 60% 0in /  0.0mm
10:44 59.4 °F /  15.2 °C 45.5 °F /  7.5 °C 30in /  1017.0hPa SSO 7.3mph /  11.8km/h 14mph /  22.5km/h 60% 0in /  0.0mm
10:49 59.4 °F /  15.2 °C 45.5 °F /  7.5 °C 30in /  1017.0hPa SSO 7.6mph /  12.2km/h 14mph /  22.5km/h 60% 0in /  0.0mm
10:54 59.7 °F /  15.4 °C 45.9 °F /  7.7 °C 30in /  1017.0hPa SSO 7.9mph /  12.7km/h 14.5mph /  23.3km/h 60% 0in /  0.0mm
10:59 60.1 °F /  15.6 °C 45.9 °F /  7.7 °C 30in /  1016.9hPa SSO 8.1mph /  13km/h 15mph /  24.1km/h 59.5% 0in /  0.0mm
11:04 60.3 °F /  15.7 °C 45.9 °F /  7.7 °C 30in /  1016.9hPa SSO 8.3mph /  13.4km/h 15mph /  24.1km/h 59% 0in /  0.0mm
11:09 60.6 °F /  15.9 °C 45.9 °F /  7.7 °C 30in /  1017.0hPa SSO 8.5mph /  13.7km/h 15mph /  24.1km/h 58.1% 0in /  0.0mm
11:14 61 °F /  16.1 °C 45.7 °F /  7.6 °C 30in /  1017.0hPa SSO 8.6mph /  13.9km/h 15.2mph /  24.5km/h 57.2% 0in /  0.0mm
11:19 61.2 °F /  16.2 °C 45.9 °F /  7.7 °C 30in /  1017.0hPa SSO 8.7mph /  14km/h 15mph /  24.1km/h 57.1% 0in /  0.0mm
11:24 61.3 °F /  16.3 °C 46 °F /  7.8 °C 30in /  1017.0hPa SSO 9.3mph /  15km/h 15mph /  24.1km/h 57% 0in /  0.0mm
11:29 61.5 °F /  16.4 °C 46.2 °F /  7.9 °C 30in /  1016.9hPa SSO 9.7mph /  15.6km/h 13.8mph /  22.2km/h 57% 0in /  0.0mm
11:34 61.9 °F /  16.6 °C 46.2 °F /  7.9 °C 30in /  1016.9hPa SSO 8.8mph /  14.1km/h 14mph /  22.5km/h 56.3% 0in /  0.0mm
11:39 62.1 °F /  16.7 °C 46.2 °F /  7.9 °C 30in /  1016.9hPa SSO 8.1mph /  13km/h 13mph /  20.9km/h 56% 0in /  0.0mm
11:44 62.4 °F /  16.9 °C 46.6 °F /  8.1 °C 30in /  1016.8hPa SSO 8.3mph /  13.4km/h 13mph /  20.9km/h 56% 0in /  0.0mm
11:49 63 °F /  17.2 °C 46.8 °F /  8.2 °C 30in /  1016.8hPa SO 8.5mph /  13.7km/h 13mph /  20.9km/h 55.6% 0in /  0.0mm
11:54 63.3 °F /  17.4 °C 46.8 °F /  8.2 °C 30in /  1016.8hPa SO 7.3mph /  11.7km/h 17.3mph /  27.8km/h 54.5% 0in /  0.0mm
11:59 63.9 °F /  17.7 °C 46.4 °F /  8 °C 30in /  1016.7hPa SO 6.4mph /  10.3km/h 17mph /  27.4km/h 53.1% 0in /  0.0mm
12:04 64.2 °F /  17.9 °C 46.6 °F /  8.1 °C 30in /  1016.7hPa OSO 7.7mph /  12.4km/h 15mph /  24.1km/h 52.8% 0in /  0.0mm
12:09 64.2 °F /  17.9 °C 46 °F /  7.8 °C 30in /  1016.8hPa OSO 8.5mph /  13.7km/h 17.3mph /  27.8km/h 51.8% 0in /  0.0mm
12:14 64.2 °F /  17.9 °C 46.2 °F /  7.9 °C 30in /  1016.8hPa Oeste 8.6mph /  13.9km/h 17mph /  27.4km/h 52% 0in /  0.0mm
12:19 64.6 °F /  18.1 °C 46.6 °F /  8.1 °C 30in /  1016.8hPa OSO 8.7mph /  14km/h 15mph /  24.1km/h 52% 0in /  0.0mm
12:24 64.8 °F /  18.2 °C 46.8 °F /  8.2 °C 30in /  1016.8hPa OSO 8.6mph /  13.8km/h 15mph /  24.1km/h 52% 0in /  0.0mm
12:29 64.9 °F /  18.3 °C 46.6 °F /  8.1 °C 30in /  1016.7hPa SO 8.5mph /  13.7km/h 14mph /  22.5km/h 51.6% 0in /  0.0mm
12:34 64.8 °F /  18.2 °C 46.6 °F /  8.1 °C 30in /  1016.7hPa SO 8mph /  12.8km/h 14mph /  22.5km/h 51.8% 0in /  0.0mm
12:39 64 °F /  17.8 °C 46.4 °F /  8 °C 30in /  1016.7hPa SSO 7.6mph /  12.2km/h 15mph /  24.1km/h 52.4% 0in /  0.0mm
12:44 64 °F /  17.8 °C 46.4 °F /  8 °C 30in /  1016.4hPa SSO 8.1mph /  13.1km/h 15mph /  24.1km/h 52.6% 0in /  0.0mm
12:49 64.2 °F /  17.9 °C 46.4 °F /  8 °C 30in /  1016.4hPa SSO 8.5mph /  13.7km/h 15mph /  24.1km/h 52.5% 0in /  0.0mm
12:54 64.2 °F /  17.9 °C 46.6 °F /  8.1 °C 30in /  1016.4hPa SO 8.3mph /  13.3km/h 14mph /  22.5km/h 52.9% 0in /  0.0mm
12:59 64.6 °F /  18.1 °C 46.9 °F /  8.3 °C 30in /  1016.3hPa SSO 8.1mph /  13km/h 13.8mph /  22.2km/h 52.5% 0in /  0.0mm
13:04 64.9 °F /  18.3 °C 46.9 °F /  8.3 °C 30in /  1016.3hPa SO 7mph /  11.3km/h 14mph /  22.5km/h 52.2% 0in /  0.0mm
13:09 65.5 °F /  18.6 °C 46.9 °F /  8.3 °C 30in /  1016.3hPa OSO 6.4mph /  10.3km/h 16.3mph /  26.2km/h 51.2% 0in /  0.0mm
13:14 65.8 °F /  18.8 °C 47.1 °F /  8.4 °C 30in /  1016.1hPa OSO 7.4mph /  11.9km/h 16mph /  25.7km/h 51% 0in /  0.0mm
13:19 65.8 °F /  18.8 °C 46.8 °F /  8.2 °C 30in /  1016.1hPa OSO 8.1mph /  13km/h 18.5mph /  29.8km/h 50% 0in /  0.0mm
13:24 65.8 °F /  18.8 °C 46.8 °F /  8.2 °C 30in /  1016.1hPa OSO 9mph /  14.5km/h 19mph /  30.6km/h 50% 0in /  0.0mm
13:29 66 °F /  18.9 °C 46.8 °F /  8.2 °C 30in /  1016.0hPa OSO 9.7mph /  15.6km/h 17.3mph /  27.8km/h 50% 0in /  0.0mm
13:34 66.2 °F /  19 °C 47.1 °F /  8.4 °C 30in /  1016.0hPa OSO 9.1mph /  14.6km/h 17mph /  27.4km/h 50% 0in /  0.0mm
13:39 66.4 °F /  19.1 °C 47.1 °F /  8.4 °C 30in /  1016.0hPa OSO 8.7mph /  14km/h 15mph /  24.1km/h 49.9% 0in /  0.0mm
13:44 66.6 °F /  19.2 °C 46.9 °F /  8.3 °C 30in /  1015.7hPa OSO 8mph /  12.9km/h 17.3mph /  27.8km/h 49.1% 0in /  0.0mm
13:49 66.6 °F /  19.2 °C 46.8 °F /  8.2 °C 30in /  1015.7hPa OSO 7.6mph /  12.2km/h 17mph /  27.4km/h 49% 0in /  0.0mm
13:54 66.6 °F /  19.2 °C 46.9 °F /  8.3 °C 30in /  1015.7hPa Oeste 7.9mph /  12.7km/h 15mph /  24.1km/h 49.2% 0in /  0.0mm
13:59 66.7 °F /  19.3 °C 46.9 °F /  8.3 °C 30in /  1015.5hPa OSO 8.1mph /  13km/h 13.8mph /  22.2km/h 49.1% 0in /  0.0mm
14:04 66.7 °F /  19.3 °C 46.9 °F /  8.3 °C 30in /  1015.5hPa Oeste 7.7mph /  12.4km/h 16.1mph /  25.9km/h 48.9% 0in /  0.0mm
14:09 66.6 °F /  19.2 °C 46.8 °F /  8.2 °C 30in /  1015.5hPa OSO 7.4mph /  11.9km/h 16mph /  25.7km/h 49% 0in /  0.0mm
14:14 66.6 °F /  19.2 °C 46.8 °F /  8.2 °C 30in /  1015.4hPa OSO 7.5mph /  12.1km/h 15mph /  24.1km/h 49% 0in /  0.0mm
14:19 66.7 °F /  19.3 °C 46.9 °F /  8.3 °C 30in /  1015.4hPa Oeste 7.6mph /  12.2km/h 15mph /  24.1km/h 49% 0in /  0.0mm
14:24 66.9 °F /  19.4 °C 47.1 °F /  8.4 °C 30in /  1015.4hPa Oeste 6.9mph /  11.1km/h 12mph /  19.3km/h 49% 0in /  0.0mm
14:29 66.9 °F /  19.4 °C 46.9 °F /  8.3 °C 30in /  1015.2hPa OSO 6.4mph /  10.3km/h 12.7mph /  20.4km/h 48.6% 0in /  0.0mm
14:34 66.9 °F /  19.4 °C 46.8 °F /  8.2 °C 30in /  1015.2hPa OSO 6.1mph /  9.8km/h 13mph /  20.9km/h 48.2% 0in /  0.0mm
14:39 66.9 °F /  19.4 °C 46.9 °F /  8.3 °C 30in /  1015.2hPa Oeste 5.9mph /  9.5km/h 13.5mph /  21.7km/h 48.7% 0in /  0.0mm
14:44 66.9 °F /  19.4 °C 46.6 °F /  8.1 °C 30in /  1015.0hPa Oeste 6.8mph /  10.9km/h 17.3mph /  27.8km/h 48% 0in /  0.0mm
14:49 66.9 °F /  19.4 °C 46.8 °F /  8.2 °C 30in /  1015.0hPa Oeste 7.4mph /  11.9km/h 17mph /  27.4km/h 48.3% 0in /  0.0mm
14:54 67.3 °F /  19.6 °C 46.9 °F /  8.3 °C 30in /  1015.0hPa OSO 7.8mph /  12.6km/h 13mph /  20.9km/h 48% 0in /  0.0mm
14:59 67.1 °F /  19.5 °C 46.8 °F /  8.2 °C 30in /  1014.8hPa Oeste 8.1mph /  13km/h 13mph /  20.9km/h 48.1% 0in /  0.0mm
15:04 66.9 °F /  19.4 °C 47.1 °F /  8.4 °C 30in /  1014.8hPa OSO 7.4mph /  11.9km/h 11.5mph /  18.5km/h 48.8% 0in /  0.0mm
15:09 67.3 °F /  19.6 °C 46.9 °F /  8.3 °C 30in /  1014.8hPa Oeste 6.9mph /  11.1km/h 13.5mph /  21.7km/h 48% 0in /  0.0mm
15:14 67.1 °F /  19.5 °C 46.6 °F /  8.1 °C 30in /  1014.6hPa Oeste 6.9mph /  11.1km/h 14mph /  22.5km/h 47.7% 0in /  0.0mm
15:19 66.9 °F /  19.4 °C 46.4 °F /  8 °C 30in /  1014.6hPa Oeste 6.9mph /  11.1km/h 14mph /  22.5km/h 47.8% 0in /  0.0mm
15:24 67.1 °F /  19.5 °C 46.6 °F /  8.1 °C 30in /  1014.7hPa OSO 6.5mph /  10.5km/h 15.2mph /  24.5km/h 47.7% 0in /  0.0mm
15:29 67.5 °F /  19.7 °C 46.6 °F /  8.1 °C 30in /  1014.7hPa Oeste 6.2mph /  10km/h 15mph /  24.1km/h 47.3% 0in /  0.0mm
15:34 67.5 °F /  19.7 °C 46.6 °F /  8.1 °C 30in /  1014.7hPa Oeste 7.6mph /  12.2km/h 15mph /  24.1km/h 47% 0in /  0.0mm
15:39 67.5 °F /  19.7 °C 46.6 °F /  8.1 °C 30in /  1014.7hPa Oeste 8.5mph /  13.7km/h 15mph /  24.1km/h 47% 0in /  0.0mm
15:44 67.5 °F /  19.7 °C 46.6 °F /  8.1 °C 30in /  1014.5hPa Oeste 7.6mph /  12.2km/h 13mph /  20.9km/h 47% 0in /  0.0mm
15:49 67.5 °F /  19.7 °C 46.6 °F /  8.1 °C 30in /  1014.5hPa Oeste 6.9mph /  11.1km/h 13mph /  20.9km/h 47.3% 0in /  0.0mm
15:54 67.3 °F /  19.6 °C 46.8 °F /  8.2 °C 30in /  1014.6hPa Oeste 7.2mph /  11.6km/h 13mph /  20.9km/h 47.9% 0in /  0.0mm
15:59 67.1 °F /  19.5 °C 46.8 °F /  8.2 °C 30in /  1014.6hPa Oeste 7.4mph /  11.9km/h 13mph /  20.9km/h 48% 0in /  0.0mm
16:04 66.9 °F /  19.4 °C 46.6 °F /  8.1 °C 30in /  1014.6hPa OSO 6.8mph /  10.9km/h 11.2mph /  18km/h 48% 0in /  0.0mm
16:09 67.3 °F /  19.6 °C 46.9 °F /  8.3 °C 30in /  1014.6hPa OSO 6.4mph /  10.3km/h 12mph /  19.3km/h 48% 0in /  0.0mm
16:14 67.3 °F /  19.6 °C 46.9 °F /  8.3 °C 30in /  1014.6hPa Oeste 5.8mph /  9.3km/h 11.5mph /  18.5km/h 48% 0in /  0.0mm
16:19 67.3 °F /  19.6 °C 46.9 °F /  8.3 °C 30in /  1014.6hPa Oeste 5.4mph /  8.7km/h 12mph /  19.3km/h 48% 0in /  0.0mm
16:24 67.3 °F /  19.6 °C 46.9 °F /  8.3 °C 30in /  1014.6hPa ONO 6mph /  9.7km/h 13.8mph /  22.2km/h 48% 0in /  0.0mm
16:29 67.3 °F /  19.6 °C 46.9 °F /  8.3 °C 30in /  1014.6hPa Oeste 6.4mph /  10.3km/h 14mph /  22.5km/h 48% 0in /  0.0mm
16:34 67.3 °F /  19.6 °C 46.9 °F /  8.3 °C 30in /  1014.6hPa Oeste 7mph /  11.3km/h 12mph /  19.3km/h 48% 0in /  0.0mm
16:39 67.1 °F /  19.5 °C 46.8 °F /  8.2 °C 30in /  1014.9hPa Oeste 7.4mph /  11.9km/h 13.8mph /  22.2km/h 48% 0in /  0.0mm
16:44 66.9 °F /  19.4 °C 46.6 °F /  8.1 °C 30in /  1014.9hPa Oeste 7.1mph /  11.4km/h 14mph /  22.5km/h 48% 0in /  0.0mm
16:49 66.7 °F /  19.3 °C 46.4 °F /  8 °C 30in /  1014.9hPa Oeste 6.9mph /  11.1km/h 13mph /  20.9km/h 48% 0in /  0.0mm
16:54 66.7 °F /  19.3 °C 46.4 °F /  8 °C 30in /  1014.9hPa Oeste 7.2mph /  11.6km/h 13mph /  20.9km/h 48% 0in /  0.0mm
16:59 66.7 °F /  19.3 °C 46.4 °F /  8 °C 30in /  1014.9hPa ONO 7.4mph /  11.9km/h 13mph /  20.9km/h 48% 0in /  0.0mm
17:04 66.7 °F /  19.3 °C 46.4 °F /  8 °C 30in /  1014.9hPa ONO 7.1mph /  11.4km/h 11.8mph /  19km/h 48% 0in /  0.0mm
17:09 66.6 °F /  19.2 °C 46.2 °F /  7.9 °C 30in /  1014.9hPa Oeste 6.9mph /  11.1km/h 12mph /  19.3km/h 48% 0in /  0.0mm
17:14 66.4 °F /  19.1 °C 46 °F /  7.8 °C 30in /  1014.8hPa Oeste 6.9mph /  11.1km/h 12.7mph /  20.4km/h 48% 0in /  0.0mm
17:19 66.2 °F /  19 °C 46.2 °F /  7.9 °C 30in /  1014.8hPa Oeste 6.9mph /  11.1km/h 13mph /  20.9km/h 48.6% 0in /  0.0mm
17:24 65.8 °F /  18.8 °C 46.2 °F /  7.9 °C 30in /  1015.0hPa Oeste 6.9mph /  11.1km/h 12mph /  19.3km/h 49% 0in /  0.0mm
17:29 65.7 °F /  18.7 °C 46 °F /  7.8 °C 30in /  1015.0hPa Oeste 6.9mph /  11.1km/h 13.8mph /  22.2km/h 49.2% 0in /  0.0mm
17:34 65.5 °F /  18.6 °C 46.2 °F /  7.9 °C 30in /  1015.0hPa OSO 6.9mph /  11.1km/h 14mph /  22.5km/h 50% 0in /  0.0mm
17:39 65.3 °F /  18.5 °C 46.2 °F /  7.9 °C 30in /  1015.0hPa OSO 6.9mph /  11.1km/h 9.2mph /  14.8km/h 50% 0in /  0.0mm
17:44 65.1 °F /  18.4 °C 46 °F /  7.8 °C 30in /  1015.0hPa OSO 5.9mph /  9.5km/h 9.7mph /  15.6km/h 50% 0in /  0.0mm
17:49 64.9 °F /  18.3 °C 45.9 °F /  7.7 °C 30in /  1015.0hPa OSO 5.2mph /  8.4km/h 11.5mph /  18.5km/h 50% 0in /  0.0mm
17:54 64.8 °F /  18.2 °C 45.7 °F /  7.6 °C 30in /  1015.0hPa OSO 5.8mph /  9.3km/h 12mph /  19.3km/h 50% 0in /  0.0mm
17:59 64.6 °F /  18.1 °C 45.5 °F /  7.5 °C 30in /  1015.0hPa Oeste 6.2mph /  10km/h 10.7mph /  17.2km/h 50% 0in /  0.0mm
18:04 64.2 °F /  17.9 °C 45.7 °F /  7.6 °C 30in /  1015.0hPa Oeste 5.7mph /  9.2km/h 11mph /  17.7km/h 50.7% 0in /  0.0mm
18:09 64 °F /  17.8 °C 45.5 °F /  7.5 °C 30in /  1015.2hPa Oeste 5.4mph /  8.7km/h 10.4mph /  16.7km/h 51% 0in /  0.0mm
18:14 63.9 °F /  17.7 °C 45.3 °F /  7.4 °C 30in /  1015.2hPa Oeste 5.9mph /  9.5km/h 11.8mph /  19km/h 51% 0in /  0.0mm
18:19 63.7 °F /  17.6 °C 45.3 °F /  7.4 °C 30in /  1015.2hPa Oeste 6.2mph /  10km/h 12mph /  19.3km/h 51.3% 0in /  0.0mm
18:24 63.3 °F /  17.4 °C 45.3 °F /  7.4 °C 30in /  1015.3hPa Oeste 6.3mph /  10.2km/h 12.7mph /  20.4km/h 51.9% 0in /  0.0mm
18:29 63.1 °F /  17.3 °C 45.1 °F /  7.3 °C 30in /  1015.3hPa Oeste 6.4mph /  10.3km/h 13mph /  20.9km/h 52% 0in /  0.0mm
18:34 63 °F /  17.2 °C 45.1 °F /  7.3 °C 30in /  1015.3hPa ONO 6.3mph /  10.1km/h 10.4mph /  16.7km/h 52.1% 0in /  0.0mm
18:39 62.8 °F /  17.1 °C 45.3 °F /  7.4 °C 30in /  1015.4hPa ONO 6.2mph /  10km/h 10mph /  16.1km/h 53% 0in /  0.0mm
18:44 62.4 °F /  16.9 °C 45.1 °F /  7.3 °C 30in /  1015.4hPa Oeste 5.7mph /  9.2km/h 12.7mph /  20.4km/h 53% 0in /  0.0mm
18:49 62.2 °F /  16.8 °C 45.1 °F /  7.3 °C 30in /  1015.4hPa ONO 5.4mph /  8.7km/h 13mph /  20.9km/h 53.3% 0in /  0.0mm
18:54 62.1 °F /  16.7 °C 45.1 °F /  7.3 °C 30in /  1015.4hPa Oeste 6.3mph /  10.2km/h 12mph /  19.3km/h 54% 0in /  0.0mm
18:59 62.1 °F /  16.7 °C 45.1 °F /  7.3 °C 30in /  1015.3hPa Oeste 6.9mph /  11.1km/h 11.8mph /  19km/h 54% 0in /  0.0mm
19:04 61.9 °F /  16.6 °C 45 °F /  7.2 °C 30in /  1015.3hPa Oeste 7.2mph /  11.6km/h 12.7mph /  20.4km/h 54% 0in /  0.0mm
19:09 61.7 °F /  16.5 °C 45 °F /  7.2 °C 30in /  1015.4hPa Oeste 7.4mph /  11.9km/h 13mph /  20.9km/h 54% 0in /  0.0mm
19:14 61.5 °F /  16.4 °C 44.8 °F /  7.1 °C 30in /  1015.4hPa ONO 7.5mph /  12.1km/h 13mph /  20.9km/h 54% 0in /  0.0mm
19:19 61.3 °F /  16.3 °C 44.6 °F /  7 °C 30in /  1015.4hPa ONO 7.6mph /  12.2km/h 13mph /  20.9km/h 54% 0in /  0.0mm
19:24 61.2 °F /  16.2 °C 44.4 °F /  6.9 °C 30in /  1015.5hPa ONO 7.9mph /  12.7km/h 13mph /  20.9km/h 54% 0in /  0.0mm
19:29 61 °F /  16.1 °C 44.2 °F /  6.8 °C 30in /  1015.5hPa ONO 8.1mph /  13km/h 15.2mph /  24.5km/h 54% 0in /  0.0mm
19:34 61 °F /  16.1 °C 44.2 °F /  6.8 °C 30in /  1015.5hPa Oeste 8.3mph /  13.4km/h 18.5mph /  29.8km/h 54% 0in /  0.0mm
19:39 60.8 °F /  16 °C 44.1 °F /  6.7 °C 30in /  1015.7hPa ONO 8.5mph /  13.7km/h 19mph /  30.6km/h 54% 0in /  0.0mm
19:44 60.6 °F /  15.9 °C 44.1 °F /  6.7 °C 30in /  1015.7hPa Oeste 9.5mph /  15.3km/h 16.1mph /  25.9km/h 54.3% 0in /  0.0mm
19:49 60.4 °F /  15.8 °C 44.2 °F /  6.8 °C 30in /  1015.7hPa Oeste 10.2mph /  16.4km/h 16.1mph /  25.9km/h 55% 0in /  0.0mm
19:54 60.4 °F /  15.8 °C 44.1 °F /  6.7 °C 30in /  1015.8hPa ONO 10.2mph /  16.4km/h 16.1mph /  25.9km/h 55% 0in /  0.0mm
19:59 60.3 °F /  15.7 °C 44.1 °F /  6.7 °C 30in /  1015.8hPa Oeste 10.2mph /  16.4km/h 16mph /  25.7km/h 55% 0in /  0.0mm
20:04 60.3 °F /  15.7 °C 43.9 °F /  6.6 °C 30in /  1015.8hPa ONO 8.9mph /  14.3km/h 15mph /  24.1km/h 55% 0in /  0.0mm
20:09 60.1 °F /  15.6 °C 43.9 °F /  6.6 °C 30in /  1016.0hPa Oeste 8.1mph /  13km/h 15.2mph /  24.5km/h 55% 0in /  0.0mm
20:14 59.9 °F /  15.5 °C 43.7 °F /  6.5 °C 30in /  1016.0hPa Oeste 7.7mph /  12.4km/h 15mph /  24.1km/h 55% 0in /  0.0mm
20:19 59.7 °F /  15.4 °C 43.5 °F /  6.4 °C 30in /  1016.0hPa OSO 7.4mph /  11.9km/h 13mph /  20.9km/h 55% 0in /  0.0mm
20:24 59.5 °F /  15.3 °C 43.3 °F /  6.3 °C 30in /  1016.1hPa OSO 6.8mph /  11km/h 12mph /  19.3km/h 55% 0in /  0.0mm
20:29 59.4 °F /  15.2 °C 43.2 °F /  6.2 °C 30in /  1016.1hPa OSO 6.4mph /  10.3km/h 12mph /  19.3km/h 55% 0in /  0.0mm
20:34 59.4 °F /  15.2 °C 43.2 °F /  6.2 °C 30in /  1016.1hPa OSO 6.4mph /  10.3km/h 11.8mph /  19km/h 55% 0in /  0.0mm
20:39 59.4 °F /  15.2 °C 43.3 °F /  6.3 °C 30in /  1016.2hPa OSO 6.4mph /  10.3km/h 12mph /  19.3km/h 55.2% 0in /  0.0mm
20:44 59.2 °F /  15.1 °C 43.5 °F /  6.4 °C 30in /  1016.2hPa OSO 6.4mph /  10.3km/h 11mph /  17.7km/h 56% 0in /  0.0mm
20:49 59.2 °F /  15.1 °C 43.5 °F /  6.4 °C 30in /  1016.2hPa OSO 6.4mph /  10.3km/h 11.5mph /  18.5km/h 56% 0in /  0.0mm
20:54 59.2 °F /  15.1 °C 43.5 °F /  6.4 °C 30in /  1016.3hPa OSO 6.1mph /  9.8km/h 12mph /  19.3km/h 56% 0in /  0.0mm
20:59 59 °F /  15 °C 43.3 °F /  6.3 °C 30in /  1016.3hPa SO 5.9mph /  9.5km/h 10.4mph /  16.7km/h 56% 0in /  0.0mm
21:04 58.8 °F /  14.9 °C 43.3 °F /  6.3 °C 30in /  1016.3hPa SO 6.1mph /  9.8km/h 11.5mph /  18.5km/h 56.3% 0in /  0.0mm
21:09 58.6 °F /  14.8 °C 43.5 °F /  6.4 °C 30in /  1016.3hPa SO 6.2mph /  10km/h 12mph /  19.3km/h 57% 0in /  0.0mm
21:14 58.5 °F /  14.7 °C 43.3 °F /  6.3 °C 30in /  1016.3hPa SO 6.3mph /  10.2km/h 12mph /  19.3km/h 57% 0in /  0.0mm
21:19 58.5 °F /  14.7 °C 43.3 °F /  6.3 °C 30in /  1016.3hPa SO 6.4mph /  10.3km/h 11mph /  17.7km/h 57% 0in /  0.0mm
21:24 58.3 °F /  14.6 °C 43.2 °F /  6.2 °C 30in /  1016.3hPa SO 6.1mph /  9.8km/h 11.2mph /  18km/h 57% 0in /  0.0mm
21:29 58.3 °F /  14.6 °C 43.2 °F /  6.2 °C 30in /  1016.3hPa SO 5.9mph /  9.5km/h 12mph /  19.3km/h 57.3% 0in /  0.0mm
21:34 57.9 °F /  14.4 °C 43.3 °F /  6.3 °C 30in /  1016.3hPa SO 5.9mph /  9.5km/h 10mph /  16.1km/h 58% 0in /  0.0mm
21:39 57.9 °F /  14.4 °C 43.2 °F /  6.2 °C 30in /  1016.3hPa SO 5.9mph /  9.5km/h 10.7mph /  17.2km/h 58% 0in /  0.0mm
21:44 57.7 °F /  14.3 °C 43.2 °F /  6.2 °C 30in /  1016.2hPa SO 5.9mph /  9.5km/h 11.8mph /  19km/h 58% 0in /  0.0mm
21:49 57.7 °F /  14.3 °C 43.2 °F /  6.2 °C 30in /  1016.2hPa SO 5.9mph /  9.5km/h 12mph /  19.3km/h 58.1% 0in /  0.0mm
21:54 57.6 °F /  14.2 °C 43.3 °F /  6.3 °C 30in /  1016.4hPa SO 6.8mph /  10.9km/h 12mph /  19.3km/h 59% 0in /  0.0mm
21:59 57.4 °F /  14.1 °C 43.2 °F /  6.2 °C 30in /  1016.4hPa SO 7.4mph /  11.9km/h 11mph /  17.7km/h 59% 0in /  0.0mm
22:04 57.4 °F /  14.1 °C 43.2 °F /  6.2 °C 30in /  1016.4hPa SO 6.5mph /  10.4km/h 9.2mph /  14.8km/h 59% 0in /  0.0mm
22:09 57 °F /  13.9 °C 43.2 °F /  6.2 °C 30in /  1016.6hPa SO 5.9mph /  9.5km/h 9.7mph /  15.6km/h 59.5% 0in /  0.0mm
22:14 57 °F /  13.9 °C 43.3 °F /  6.3 °C 30in /  1016.6hPa SO 5.9mph /  9.5km/h 10mph /  16.1km/h 60% 0in /  0.0mm
22:19 57 °F /  13.9 °C 43.2 °F /  6.2 °C 30in /  1016.6hPa SSO 5.9mph /  9.5km/h 10mph /  16.1km/h 59.8% 0in /  0.0mm
22:24 57 °F /  13.9 °C 43.3 °F /  6.3 °C 30in /  1016.8hPa SSO 5.9mph /  9.5km/h 9mph /  14.5km/h 60% 0in /  0.0mm
22:29 57 °F /  13.9 °C 43.3 °F /  6.3 °C 30in /  1016.8hPa SSO 5.9mph /  9.5km/h 8mph /  12.9km/h 60% 0in /  0.0mm
22:34 56.8 °F /  13.8 °C 43.2 °F /  6.2 °C 30in /  1016.8hPa SSO 5.2mph /  8.3km/h 9.2mph /  14.8km/h 60% 0in /  0.0mm
22:39 56.8 °F /  13.8 °C 43.2 °F /  6.2 °C 30in /  1016.9hPa SSO 4.7mph /  7.6km/h 9.2mph /  14.8km/h 60.2% 0in /  0.0mm
22:44 56.7 °F /  13.7 °C 43.3 °F /  6.3 °C 30in /  1016.9hPa SSO 5.1mph /  8.2km/h 9.7mph /  15.6km/h 61% 0in /  0.0mm
22:49 56.3 °F /  13.5 °C 43.2 °F /  6.2 °C 30in /  1016.9hPa SO 5.4mph /  8.7km/h 10mph /  16.1km/h 61.1% 0in /  0.0mm
22:54 56.1 °F /  13.4 °C 43.3 °F /  6.3 °C 30in /  1017.0hPa SSO 5.4mph /  8.7km/h 9.7mph /  15.6km/h 61.9% 0in /  0.0mm
22:59 56.1 °F /  13.4 °C 43.3 °F /  6.3 °C 30in /  1017.0hPa SSO 5.4mph /  8.7km/h 11.5mph /  18.5km/h 62% 0in /  0.0mm
23:04 56.1 °F /  13.4 °C 43.3 °F /  6.3 °C 30in /  1017.0hPa SSO 6mph /  9.7km/h 12.7mph /  20.4km/h 62% 0in /  0.0mm
23:09 55.9 °F /  13.3 °C 43.2 °F /  6.2 °C 30in /  1017.0hPa SSO 6.4mph /  10.3km/h 13.8mph /  22.2km/h 62% 0in /  0.0mm
23:14 55.9 °F /  13.3 °C 43.2 °F /  6.2 °C 30in /  1016.8hPa SSO 6.4mph /  10.3km/h 14mph /  22.5km/h 62% 0in /  0.0mm
23:19 55.8 °F /  13.2 °C 43.3 °F /  6.3 °C 30in /  1016.8hPa SSO 6.4mph /  10.3km/h 12mph /  19.3km/h 62.7% 0in /  0.0mm
23:24 55.8 °F /  13.2 °C 43.3 °F /  6.3 °C 30in /  1016.8hPa SSO 7mph /  11.3km/h 12mph /  19.3km/h 63% 0in /  0.0mm
23:29 55.8 °F /  13.2 °C 43.3 °F /  6.3 °C 30in /  1016.7hPa SSO 7.4mph /  11.9km/h 12mph /  19.3km/h 63% 0in /  0.0mm
23:34 55.8 °F /  13.2 °C 43.2 °F /  6.2 °C 30in /  1016.7hPa SO 6.8mph /  10.9km/h 10mph /  16.1km/h 63% 0in /  0.0mm
23:39 55.6 °F /  13.1 °C 43.2 °F /  6.2 °C 30in /  1016.8hPa SO 6.4mph /  10.3km/h 9.7mph /  15.6km/h 63% 0in /  0.0mm
23:44 55.4 °F /  13 °C 43 °F /  6.1 °C 30in /  1016.8hPa SSO 5.7mph /  9.2km/h 10mph /  16.1km/h 63% 0in /  0.0mm
23:49 55.2 °F /  12.9 °C 42.8 °F /  6 °C 30in /  1016.8hPa SSO 5.2mph /  8.4km/h 8.5mph /  13.7km/h 63% 0in /  0.0mm
23:54 55.2 °F /  12.9 °C 42.8 °F /  6 °C 30in /  1016.8hPa SSO 5.6mph /  9km/h 9.7mph /  15.6km/h 63% 0in /  0.0mm
23:59 55.2 °F /  12.9 °C 42.8 °F /  6 °C 30in /  1016.7hPa SSO 5.9mph /  9.5km/h 10.4mph /  16.7km/h 63% 0in /  0.0mm
Murcia-Puente Tocinos, España
Compliments of Weather Underground - 3.25 mb

La estación de MeteoMurcia.com, publica sus datos en los siguientes proyectos:

Weather Underground PWS IMURCIAP2 Meteoclimatic www.awekas.at

W3Counter
Web Analytics